sensor_id;sensor_type;location;lat;lon;timestamp;temperature;humidity
51801;DHT22;37855;53.204;6.568;2022-11-15T00:00:48;8.20;76.70
51801;DHT22;37855;53.204;6.568;2022-11-15T00:03:17;8.30;76.70
51801;DHT22;37855;53.204;6.568;2022-11-15T00:05:43;8.20;76.70
51801;DHT22;37855;53.204;6.568;2022-11-15T00:08:10;8.20;76.70
51801;DHT22;37855;53.204;6.568;2022-11-15T00:10:39;8.20;76.70
51801;DHT22;37855;53.204;6.568;2022-11-15T00:13:11;8.20;76.60
51801;DHT22;37855;53.204;6.568;2022-11-15T00:15:41;8.20;76.60
51801;DHT22;37855;53.204;6.568;2022-11-15T00:18:14;8.20;76.50
51801;DHT22;37855;53.204;6.568;2022-11-15T00:20:40;8.10;76.50
51801;DHT22;37855;53.204;6.568;2022-11-15T00:23:06;8.10;76.50
51801;DHT22;37855;53.204;6.568;2022-11-15T00:25:32;8.10;76.50
51801;DHT22;37855;53.204;6.568;2022-11-15T00:27:58;8.00;76.50
51801;DHT22;37855;53.204;6.568;2022-11-15T00:30:24;8.00;76.60
51801;DHT22;37855;53.204;6.568;2022-11-15T00:32:52;7.90;76.70
51801;DHT22;37855;53.204;6.568;2022-11-15T00:35:19;7.90;76.70
51801;DHT22;37855;53.204;6.568;2022-11-15T00:37:44;7.80;76.80
51801;DHT22;37855;53.204;6.568;2022-11-15T00:40:11;7.80;76.80
51801;DHT22;37855;53.204;6.568;2022-11-15T00:42:41;7.80;76.90
51801;DHT22;37855;53.204;6.568;2022-11-15T00:45:07;7.80;77.00
51801;DHT22;37855;53.204;6.568;2022-11-15T00:47:33;7.80;77.00
51801;DHT22;37855;53.204;6.568;2022-11-15T00:49:59;7.80;77.20
51801;DHT22;37855;53.204;6.568;2022-11-15T00:52:27;7.70;77.20
51801;DHT22;37855;53.204;6.568;2022-11-15T00:54:53;7.80;77.20
51801;DHT22;37855;53.204;6.568;2022-11-15T00:57:18;7.70;77.30
51801;DHT22;37855;53.204;6.568;2022-11-15T00:59:44;7.80;77.40
51801;DHT22;37855;53.204;6.568;2022-11-15T01:02:10;7.80;77.40
51801;DHT22;37855;53.204;6.568;2022-11-15T01:04:36;7.80;77.30
51801;DHT22;37855;53.204;6.568;2022-11-15T01:07:01;7.80;77.30
51801;DHT22;37855;53.204;6.568;2022-11-15T01:09:28;7.80;77.30
51801;DHT22;37855;53.204;6.568;2022-11-15T01:11:55;7.90;77.20
51801;DHT22;37855;53.204;6.568;2022-11-15T01:14:21;7.90;77.10
51801;DHT22;37855;53.204;6.568;2022-11-15T01:16:46;7.90;77.00
51801;DHT22;37855;53.204;6.568;2022-11-15T01:19:16;7.90;77.00
51801;DHT22;37855;53.204;6.568;2022-11-15T01:21:49;7.90;76.90
51801;DHT22;37855;53.204;6.568;2022-11-15T01:24:15;7.90;76.90
51801;DHT22;37855;53.204;6.568;2022-11-15T01:26:43;7.90;76.80
51801;DHT22;37855;53.204;6.568;2022-11-15T01:29:09;7.80;76.80
51801;DHT22;37855;53.204;6.568;2022-11-15T01:31:34;7.80;76.80
51801;DHT22;37855;53.204;6.568;2022-11-15T01:34:03;7.80;76.80
51801;DHT22;37855;53.204;6.568;2022-11-15T01:36:30;7.80;76.80
51801;DHT22;37855;53.204;6.568;2022-11-15T01:38:58;7.80;76.80
51801;DHT22;37855;53.204;6.568;2022-11-15T01:41:27;7.80;76.80
51801;DHT22;37855;53.204;6.568;2022-11-15T01:43:55;7.80;76.60
51801;DHT22;37855;53.204;6.568;2022-11-15T01:46:27;7.80;76.30
51801;DHT22;37855;53.204;6.568;2022-11-15T01:48:56;7.80;76.20
51801;DHT22;37855;53.204;6.568;2022-11-15T01:51:31;7.80;76.30
51801;DHT22;37855;53.204;6.568;2022-11-15T01:54:02;7.90;76.20
51801;DHT22;37855;53.204;6.568;2022-11-15T01:56:33;7.90;76.30
51801;DHT22;37855;53.204;6.568;2022-11-15T01:59:03;7.90;76.30
51801;DHT22;37855;53.204;6.568;2022-11-15T02:01:33;7.90;76.20
51801;DHT22;37855;53.204;6.568;2022-11-15T02:04:02;7.90;76.10
51801;DHT22;37855;53.204;6.568;2022-11-15T02:06:38;7.90;76.00
51801;DHT22;37855;53.204;6.568;2022-11-15T02:09:06;7.90;76.00
51801;DHT22;37855;53.204;6.568;2022-11-15T02:11:32;7.90;76.10
51801;DHT22;37855;53.204;6.568;2022-11-15T02:13:59;7.90;76.00
51801;DHT22;37855;53.204;6.568;2022-11-15T02:16:54;7.90;76.20
51801;DHT22;37855;53.204;6.568;2022-11-15T02:22:30;7.90;76.10
51801;DHT22;37855;53.204;6.568;2022-11-15T02:30:41;7.90;76.20
51801;DHT22;37855;53.204;6.568;2022-11-15T02:35:59;7.80;76.20
51801;DHT22;37855;53.204;6.568;2022-11-15T02:41:16;7.80;76.30
51801;DHT22;37855;53.204;6.568;2022-11-15T02:43:56;7.80;76.50
51801;DHT22;37855;53.204;6.568;2022-11-15T02:46:41;7.80;76.50
51801;DHT22;37855;53.204;6.568;2022-11-15T02:49:30;7.80;76.60
51801;DHT22;37855;53.204;6.568;2022-11-15T02:51:56;7.80;76.60
51801;DHT22;37855;53.204;6.568;2022-11-15T02:54:28;7.80;76.60
51801;DHT22;37855;53.204;6.568;2022-11-15T02:57:04;7.80;76.60
51801;DHT22;37855;53.204;6.568;2022-11-15T03:08:16;7.90;77.00
51801;DHT22;37855;53.204;6.568;2022-11-15T03:11:09;7.90;77.10
51801;DHT22;37855;53.204;6.568;2022-11-15T03:16:40;7.80;77.10
51801;DHT22;37855;53.204;6.568;2022-11-15T03:19:29;7.90;77.20
51801;DHT22;37855;53.204;6.568;2022-11-15T03:22:00;7.90;77.30
51801;DHT22;37855;53.204;6.568;2022-11-15T03:24:29;7.90;77.20
51801;DHT22;37855;53.204;6.568;2022-11-15T03:27:01;7.90;77.30
51801;DHT22;37855;53.204;6.568;2022-11-15T03:29:31;7.90;77.40
51801;DHT22;37855;53.204;6.568;2022-11-15T03:32:02;7.90;77.50
51801;DHT22;37855;53.204;6.568;2022-11-15T03:34:43;7.90;77.60
51801;DHT22;37855;53.204;6.568;2022-11-15T03:37:12;7.90;77.60
51801;DHT22;37855;53.204;6.568;2022-11-15T03:39:39;8.00;77.70
51801;DHT22;37855;53.204;6.568;2022-11-15T03:42:22;8.00;77.80
51801;DHT22;37855;53.204;6.568;2022-11-15T03:47:36;8.00;77.80
51801;DHT22;37855;53.204;6.568;2022-11-15T03:50:18;8.00;77.70
51801;DHT22;37855;53.204;6.568;2022-11-15T03:52:46;8.00;77.80
51801;DHT22;37855;53.204;6.568;2022-11-15T03:55:16;8.00;77.80
51801;DHT22;37855;53.204;6.568;2022-11-15T03:57:43;8.00;77.80
51801;DHT22;37855;53.204;6.568;2022-11-15T04:00:09;8.10;77.80
51801;DHT22;37855;53.204;6.568;2022-11-15T04:02:35;8.10;77.90
51801;DHT22;37855;53.204;6.568;2022-11-15T04:05:01;8.10;77.90
51801;DHT22;37855;53.204;6.568;2022-11-15T04:07:26;8.10;77.80
51801;DHT22;37855;53.204;6.568;2022-11-15T04:09:52;8.10;77.90
51801;DHT22;37855;53.204;6.568;2022-11-15T04:12:38;8.10;77.90
51801;DHT22;37855;53.204;6.568;2022-11-15T04:15:09;8.10;77.90
51801;DHT22;37855;53.204;6.568;2022-11-15T04:17:44;8.10;77.90
51801;DHT22;37855;53.204;6.568;2022-11-15T04:20:23;8.10;78.00
51801;DHT22;37855;53.204;6.568;2022-11-15T04:23:11;8.20;78.10
51801;DHT22;37855;53.204;6.568;2022-11-15T04:25:57;8.10;78.20
51801;DHT22;37855;53.204;6.568;2022-11-15T04:28:23;8.20;78.30
51801;DHT22;37855;53.204;6.568;2022-11-15T04:30:49;8.20;78.40
51801;DHT22;37855;53.204;6.568;2022-11-15T04:33:15;8.20;78.50
51801;DHT22;37855;53.204;6.568;2022-11-15T04:35:42;8.20;78.60
51801;DHT22;37855;53.204;6.568;2022-11-15T04:38:10;8.20;78.70
51801;DHT22;37855;53.204;6.568;2022-11-15T04:40:39;8.20;78.70
51801;DHT22;37855;53.204;6.568;2022-11-15T04:43:05;8.30;78.80
51801;DHT22;37855;53.204;6.568;2022-11-15T04:45:31;8.30;78.90
51801;DHT22;37855;53.204;6.568;2022-11-15T04:47:57;8.30;79.10
51801;DHT22;37855;53.204;6.568;2022-11-15T04:50:22;8.30;79.10
51801;DHT22;37855;53.204;6.568;2022-11-15T04:52:58;8.30;79.10
51801;DHT22;37855;53.204;6.568;2022-11-15T04:55:27;8.30;79.30
51801;DHT22;37855;53.204;6.568;2022-11-15T04:57:58;8.30;79.30
51801;DHT22;37855;53.204;6.568;2022-11-15T05:00:26;8.30;79.30
51801;DHT22;37855;53.204;6.568;2022-11-15T05:02:52;8.30;79.40
51801;DHT22;37855;53.204;6.568;2022-11-15T05:05:37;8.30;79.50
51801;DHT22;37855;53.204;6.568;2022-11-15T05:08:03;8.30;79.60
51801;DHT22;37855;53.204;6.568;2022-11-15T05:10:30;8.40;79.60
51801;DHT22;37855;53.204;6.568;2022-11-15T05:12:56;8.40;79.50
51801;DHT22;37855;53.204;6.568;2022-11-15T05:15:21;8.40;79.80
51801;DHT22;37855;53.204;6.568;2022-11-15T05:17:47;8.40;79.70
51801;DHT22;37855;53.204;6.568;2022-11-15T05:20:13;8.40;80.20
51801;DHT22;37855;53.204;6.568;2022-11-15T05:22:39;8.40;80.00
51801;DHT22;37855;53.204;6.568;2022-11-15T05:25:08;8.40;80.10
51801;DHT22;37855;53.204;6.568;2022-11-15T05:27:34;8.40;80.20
51801;DHT22;37855;53.204;6.568;2022-11-15T05:30:03;8.50;80.20
51801;DHT22;37855;53.204;6.568;2022-11-15T05:32:31;8.50;80.20
51801;DHT22;37855;53.204;6.568;2022-11-15T05:34:58;8.50;80.30
51801;DHT22;37855;53.204;6.568;2022-11-15T05:37:28;8.50;80.50
51801;DHT22;37855;53.204;6.568;2022-11-15T05:39:55;8.50;80.70
51801;DHT22;37855;53.204;6.568;2022-11-15T05:42:20;8.50;80.70
51801;DHT22;37855;53.204;6.568;2022-11-15T05:44:50;8.50;80.70
51801;DHT22;37855;53.204;6.568;2022-11-15T05:47:20;8.60;80.70
51801;DHT22;37855;53.204;6.568;2022-11-15T05:49:52;8.60;80.70
51801;DHT22;37855;53.204;6.568;2022-11-15T05:52:22;8.60;80.80
51801;DHT22;37855;53.204;6.568;2022-11-15T05:54:51;8.60;80.80
51801;DHT22;37855;53.204;6.568;2022-11-15T05:57:17;8.60;81.00
51801;DHT22;37855;53.204;6.568;2022-11-15T05:59:43;8.60;81.20
51801;DHT22;37855;53.204;6.568;2022-11-15T06:02:10;8.60;81.00
51801;DHT22;37855;53.204;6.568;2022-11-15T06:04:36;8.70;81.10
51801;DHT22;37855;53.204;6.568;2022-11-15T06:07:01;8.70;81.00
51801;DHT22;37855;53.204;6.568;2022-11-15T06:09:27;8.70;81.20
51801;DHT22;37855;53.204;6.568;2022-11-15T06:11:56;8.80;81.20
51801;DHT22;37855;53.204;6.568;2022-11-15T06:14:22;8.80;81.20
51801;DHT22;37855;53.204;6.568;2022-11-15T06:16:47;8.80;81.50
51801;DHT22;37855;53.204;6.568;2022-11-15T06:19:13;8.80;81.50
51801;DHT22;37855;53.204;6.568;2022-11-15T06:21:39;8.80;81.50
51801;DHT22;37855;53.204;6.568;2022-11-15T06:24:05;8.90;81.60
51801;DHT22;37855;53.204;6.568;2022-11-15T06:26:32;8.90;81.60
51801;DHT22;37855;53.204;6.568;2022-11-15T06:29:03;8.90;81.50
51801;DHT22;37855;53.204;6.568;2022-11-15T06:31:31;8.90;81.60
51801;DHT22;37855;53.204;6.568;2022-11-15T06:33:56;8.90;81.60
51801;DHT22;37855;53.204;6.568;2022-11-15T06:36:23;9.00;81.60
51801;DHT22;37855;53.204;6.568;2022-11-15T06:38:49;9.00;81.60
51801;DHT22;37855;53.204;6.568;2022-11-15T06:41:14;9.00;81.80
51801;DHT22;37855;53.204;6.568;2022-11-15T06:43:40;9.00;81.80
51801;DHT22;37855;53.204;6.568;2022-11-15T06:46:07;9.00;81.80
51801;DHT22;37855;53.204;6.568;2022-11-15T06:48:43;9.10;81.90
51801;DHT22;37855;53.204;6.568;2022-11-15T06:51:09;9.10;81.90
51801;DHT22;37855;53.204;6.568;2022-11-15T06:53:45;9.10;82.00
51801;DHT22;37855;53.204;6.568;2022-11-15T06:56:10;9.10;82.00
51801;DHT22;37855;53.204;6.568;2022-11-15T06:58:40;9.20;82.10
51801;DHT22;37855;53.204;6.568;2022-11-15T07:01:08;9.20;82.10
51801;DHT22;37855;53.204;6.568;2022-11-15T07:03:36;9.20;82.10
51801;DHT22;37855;53.204;6.568;2022-11-15T07:06:04;9.20;82.30
51801;DHT22;37855;53.204;6.568;2022-11-15T07:08:30;9.30;82.30
51801;DHT22;37855;53.204;6.568;2022-11-15T07:11:02;9.30;82.20
51801;DHT22;37855;53.204;6.568;2022-11-15T07:13:29;9.30;82.30
51801;DHT22;37855;53.204;6.568;2022-11-15T07:16:06;9.30;82.30
51801;DHT22;37855;53.204;6.568;2022-11-15T07:18:36;9.40;82.30
51801;DHT22;37855;53.204;6.568;2022-11-15T07:21:07;9.40;82.40
51801;DHT22;37855;53.204;6.568;2022-11-15T07:23:36;9.40;82.40
51801;DHT22;37855;53.204;6.568;2022-11-15T07:26:03;9.40;82.40
51801;DHT22;37855;53.204;6.568;2022-11-15T07:28:29;9.50;82.40
51801;DHT22;37855;53.204;6.568;2022-11-15T07:31:08;9.50;82.40
51801;DHT22;37855;53.204;6.568;2022-11-15T07:33:35;9.50;82.40
51801;DHT22;37855;53.204;6.568;2022-11-15T07:36:06;9.60;82.60
51801;DHT22;37855;53.204;6.568;2022-11-15T07:38:34;9.60;82.50
51801;DHT22;37855;53.204;6.568;2022-11-15T07:41:05;9.60;82.60
51801;DHT22;37855;53.204;6.568;2022-11-15T07:43:58;9.60;82.50
51801;DHT22;37855;53.204;6.568;2022-11-15T07:46:25;9.60;82.50
51801;DHT22;37855;53.204;6.568;2022-11-15T07:48:54;9.60;82.60
51801;DHT22;37855;53.204;6.568;2022-11-15T07:51:19;9.70;82.50
51801;DHT22;37855;53.204;6.568;2022-11-15T07:53:45;9.70;82.40
51801;DHT22;37855;53.204;6.568;2022-11-15T07:56:12;9.70;82.50
51801;DHT22;37855;53.204;6.568;2022-11-15T07:58:41;9.70;82.50
51801;DHT22;37855;53.204;6.568;2022-11-15T08:01:08;9.80;82.60
51801;DHT22;37855;53.204;6.568;2022-11-15T08:03:36;9.80;82.60
51801;DHT22;37855;53.204;6.568;2022-11-15T08:06:05;9.80;82.50
51801;DHT22;37855;53.204;6.568;2022-11-15T08:08:31;9.80;82.60
51801;DHT22;37855;53.204;6.568;2022-11-15T08:11:00;9.80;82.60
51801;DHT22;37855;53.204;6.568;2022-11-15T08:13:29;9.90;82.50
51801;DHT22;37855;53.204;6.568;2022-11-15T08:16:02;9.90;82.60
51801;DHT22;37855;53.204;6.568;2022-11-15T08:18:28;9.90;82.60
51801;DHT22;37855;53.204;6.568;2022-11-15T08:20:57;10.00;82.50
51801;DHT22;37855;53.204;6.568;2022-11-15T08:23:24;10.00;82.50
51801;DHT22;37855;53.204;6.568;2022-11-15T08:25:49;10.00;82.50
51801;DHT22;37855;53.204;6.568;2022-11-15T08:28:16;10.00;82.60
51801;DHT22;37855;53.204;6.568;2022-11-15T08:30:43;10.00;82.60
51801;DHT22;37855;53.204;6.568;2022-11-15T08:33:12;10.00;82.50
51801;DHT22;37855;53.204;6.568;2022-11-15T08:35:39;10.10;82.40
51801;DHT22;37855;53.204;6.568;2022-11-15T08:38:05;10.10;82.40
51801;DHT22;37855;53.204;6.568;2022-11-15T08:40:30;10.10;82.40
51801;DHT22;37855;53.204;6.568;2022-11-15T08:42:56;10.20;82.50
51801;DHT22;37855;53.204;6.568;2022-11-15T08:45:23;10.20;82.40
51801;DHT22;37855;53.204;6.568;2022-11-15T08:47:49;10.30;82.40
51801;DHT22;37855;53.204;6.568;2022-11-15T08:50:15;10.30;82.30
51801;DHT22;37855;53.204;6.568;2022-11-15T08:52:41;10.40;82.40
51801;DHT22;37855;53.204;6.568;2022-11-15T08:55:07;10.40;82.20
51801;DHT22;37855;53.204;6.568;2022-11-15T08:57:33;10.40;82.20
51801;DHT22;37855;53.204;6.568;2022-11-15T08:59:58;10.40;82.10
51801;DHT22;37855;53.204;6.568;2022-11-15T09:02:24;10.40;82.10
51801;DHT22;37855;53.204;6.568;2022-11-15T09:04:51;10.50;82.20
51801;DHT22;37855;53.204;6.568;2022-11-15T09:07:17;10.50;82.10
51801;DHT22;37855;53.204;6.568;2022-11-15T09:09:42;10.50;82.10
51801;DHT22;37855;53.204;6.568;2022-11-15T09:12:08;10.50;82.00
51801;DHT22;37855;53.204;6.568;2022-11-15T09:14:34;10.60;82.00
51801;DHT22;37855;53.204;6.568;2022-11-15T09:17:00;10.60;82.00
51801;DHT22;37855;53.204;6.568;2022-11-15T09:19:28;10.60;81.90
51801;DHT22;37855;53.204;6.568;2022-11-15T09:21:53;10.60;81.90
51801;DHT22;37855;53.204;6.568;2022-11-15T09:24:20;10.70;81.80
51801;DHT22;37855;53.204;6.568;2022-11-15T09:26:46;10.70;81.80
51801;DHT22;37855;53.204;6.568;2022-11-15T09:29:12;10.80;81.80
51801;DHT22;37855;53.204;6.568;2022-11-15T09:31:37;10.80;81.70
51801;DHT22;37855;53.204;6.568;2022-11-15T09:34:03;10.80;81.70
51801;DHT22;37855;53.204;6.568;2022-11-15T09:36:28;10.80;81.60
51801;DHT22;37855;53.204;6.568;2022-11-15T09:38:58;10.90;81.60
51801;DHT22;37855;53.204;6.568;2022-11-15T09:44:11;10.90;81.60
51801;DHT22;37855;53.204;6.568;2022-11-15T09:47:24;10.90;81.60
51801;DHT22;37855;53.204;6.568;2022-11-15T09:49:54;11.00;81.50
51801;DHT22;37855;53.204;6.568;2022-11-15T09:52:21;11.00;81.50
51801;DHT22;37855;53.204;6.568;2022-11-15T09:54:49;11.00;81.40
51801;DHT22;37855;53.204;6.568;2022-11-15T09:57:19;11.00;81.40
51801;DHT22;37855;53.204;6.568;2022-11-15T10:02:20;11.00;81.30
51801;DHT22;37855;53.204;6.568;2022-11-15T10:04:49;11.10;81.30
51801;DHT22;37855;53.204;6.568;2022-11-15T10:07:22;11.10;81.30
51801;DHT22;37855;53.204;6.568;2022-11-15T10:10:24;11.10;81.20
51801;DHT22;37855;53.204;6.568;2022-11-15T10:12:51;11.10;81.20
51801;DHT22;37855;53.204;6.568;2022-11-15T10:15:19;11.10;81.10
51801;DHT22;37855;53.204;6.568;2022-11-15T10:20:28;11.10;81.00
51801;DHT22;37855;53.204;6.568;2022-11-15T10:23:19;11.10;81.00
51801;DHT22;37855;53.204;6.568;2022-11-15T10:25:53;11.10;81.00
51801;DHT22;37855;53.204;6.568;2022-11-15T10:28:26;11.10;81.00
51801;DHT22;37855;53.204;6.568;2022-11-15T10:30:55;11.10;81.00
51801;DHT22;37855;53.204;6.568;2022-11-15T10:33:31;11.10;81.00
51801;DHT22;37855;53.204;6.568;2022-11-15T10:41:32;11.20;81.00
51801;DHT22;37855;53.204;6.568;2022-11-15T10:44:29;11.20;81.00
51801;DHT22;37855;53.204;6.568;2022-11-15T10:49:26;11.20;81.00
51801;DHT22;37855;53.204;6.568;2022-11-15T10:57:16;11.20;80.90
51801;DHT22;37855;53.204;6.568;2022-11-15T10:59:50;11.30;80.90
51801;DHT22;37855;53.204;6.568;2022-11-15T11:04:55;11.30;81.00
51801;DHT22;37855;53.204;6.568;2022-11-15T11:07:30;11.30;81.00
51801;DHT22;37855;53.204;6.568;2022-11-15T11:10:19;11.30;81.00
51801;DHT22;37855;53.204;6.568;2022-11-15T11:12:45;11.40;81.00
51801;DHT22;37855;53.204;6.568;2022-11-15T11:15:14;11.40;81.10
51801;DHT22;37855;53.204;6.568;2022-11-15T11:20:51;11.40;81.10
51801;DHT22;37855;53.204;6.568;2022-11-15T11:37:20;11.60;81.20
51801;DHT22;37855;53.204;6.568;2022-11-15T11:43:25;11.70;81.20
51801;DHT22;37855;53.204;6.568;2022-11-15T11:46:13;11.70;81.20
51801;DHT22;37855;53.204;6.568;2022-11-15T11:48:57;11.80;81.20
51801;DHT22;37855;53.204;6.568;2022-11-15T11:55:03;11.90;81.10
51801;DHT22;37855;53.204;6.568;2022-11-15T11:57:44;12.00;81.00
51801;DHT22;37855;53.204;6.568;2022-11-15T12:00:21;12.10;81.00
51801;DHT22;37855;53.204;6.568;2022-11-15T12:02:55;12.10;80.80
51801;DHT22;37855;53.204;6.568;2022-11-15T12:05:31;12.20;80.70
51801;DHT22;37855;53.204;6.568;2022-11-15T12:08:35;12.20;80.40
51801;DHT22;37855;53.204;6.568;2022-11-15T12:11:21;12.20;80.20
51801;DHT22;37855;53.204;6.568;2022-11-15T12:13:55;12.10;80.20
51801;DHT22;37855;53.204;6.568;2022-11-15T12:16:27;12.20;80.00
51801;DHT22;37855;53.204;6.568;2022-11-15T12:18:55;12.20;80.00
51801;DHT22;37855;53.204;6.568;2022-11-15T12:21:57;12.20;80.00
51801;DHT22;37855;53.204;6.568;2022-11-15T12:24:43;12.20;79.80
51801;DHT22;37855;53.204;6.568;2022-11-15T12:30:18;12.20;79.50
51801;DHT22;37855;53.204;6.568;2022-11-15T12:33:15;12.20;79.30
51801;DHT22;37855;53.204;6.568;2022-11-15T12:36:02;12.20;79.20
51801;DHT22;37855;53.204;6.568;2022-11-15T12:39:01;12.20;79.20
51801;DHT22;37855;53.204;6.568;2022-11-15T12:41:39;12.20;79.10
51801;DHT22;37855;53.204;6.568;2022-11-15T12:44:55;12.20;79.10
51801;DHT22;37855;53.204;6.568;2022-11-15T12:47:02;12.20;79.10
51801;DHT22;37855;53.204;6.568;2022-11-15T12:59:50;12.20;78.50
51801;DHT22;37855;53.204;6.568;2022-11-15T13:02:25;12.20;78.40
51801;DHT22;37855;53.204;6.568;2022-11-15T13:04:54;12.20;78.40
51801;DHT22;37855;53.204;6.568;2022-11-15T13:13:01;12.30;77.80
51801;DHT22;37855;53.204;6.568;2022-11-15T13:17:57;12.40;77.40
51801;DHT22;37855;53.204;6.568;2022-11-15T13:23:01;12.40;76.60
51801;DHT22;37855;53.204;6.568;2022-11-15T13:28:02;12.50;76.50
51801;DHT22;37855;53.204;6.568;2022-11-15T13:30:31;12.50;76.60
51801;DHT22;37855;53.204;6.568;2022-11-15T13:33:08;12.50;76.30
51801;DHT22;37855;53.204;6.568;2022-11-15T13:35:39;12.50;76.40
51801;DHT22;37855;53.204;6.568;2022-11-15T13:38:06;12.50;76.10
51801;DHT22;37855;53.204;6.568;2022-11-15T13:40:37;12.40;76.00
51801;DHT22;37855;53.204;6.568;2022-11-15T13:43:27;12.40;75.90
51801;DHT22;37855;53.204;6.568;2022-11-15T13:46:22;12.30;75.60
51801;DHT22;37855;53.204;6.568;2022-11-15T13:49:00;12.30;75.70
51801;DHT22;37855;53.204;6.568;2022-11-15T13:51:52;12.30;75.60
51801;DHT22;37855;53.204;6.568;2022-11-15T13:57:09;12.20;75.60
51801;DHT22;37855;53.204;6.568;2022-11-15T13:59:45;12.20;75.60
51801;DHT22;37855;53.204;6.568;2022-11-15T14:02:13;12.20;75.70
51801;DHT22;37855;53.204;6.568;2022-11-15T14:04:55;12.20;75.70
51801;DHT22;37855;53.204;6.568;2022-11-15T14:07:25;12.10;75.70
51801;DHT22;37855;53.204;6.568;2022-11-15T14:09:51;12.10;75.70
51801;DHT22;37855;53.204;6.568;2022-11-15T14:12:27;12.10;75.60
51801;DHT22;37855;53.204;6.568;2022-11-15T14:14:54;12.00;75.70
51801;DHT22;37855;53.204;6.568;2022-11-15T14:19:55;12.00;75.70
51801;DHT22;37855;53.204;6.568;2022-11-15T14:22:23;12.00;75.70
51801;DHT22;37855;53.204;6.568;2022-11-15T14:25:17;11.90;75.80
51801;DHT22;37855;53.204;6.568;2022-11-15T14:30:29;11.90;75.60
51801;DHT22;37855;53.204;6.568;2022-11-15T14:32:54;11.90;75.60
51801;DHT22;37855;53.204;6.568;2022-11-15T14:35:22;11.90;75.60
51801;DHT22;37855;53.204;6.568;2022-11-15T14:37:48;11.80;75.70
51801;DHT22;37855;53.204;6.568;2022-11-15T14:40:17;11.80;75.70
51801;DHT22;37855;53.204;6.568;2022-11-15T14:42:44;11.80;75.80
51801;DHT22;37855;53.204;6.568;2022-11-15T14:45:20;11.80;75.80
51801;DHT22;37855;53.204;6.568;2022-11-15T14:47:46;11.70;75.70
51801;DHT22;37855;53.204;6.568;2022-11-15T14:50:17;11.70;75.60
51801;DHT22;37855;53.204;6.568;2022-11-15T14:52:43;11.70;75.40
51801;DHT22;37855;53.204;6.568;2022-11-15T14:55:30;11.60;75.20
51801;DHT22;37855;53.204;6.568;2022-11-15T14:57:58;11.60;75.00
51801;DHT22;37855;53.204;6.568;2022-11-15T15:00:25;11.70;75.50
51801;DHT22;37855;53.204;6.568;2022-11-15T15:02:53;11.70;75.00
51801;DHT22;37855;53.204;6.568;2022-11-15T15:05:22;11.70;74.70
51801;DHT22;37855;53.204;6.568;2022-11-15T15:07:48;11.70;74.50
51801;DHT22;37855;53.204;6.568;2022-11-15T15:10:15;11.60;74.30
51801;DHT22;37855;53.204;6.568;2022-11-15T15:12:41;11.60;74.10
51801;DHT22;37855;53.204;6.568;2022-11-15T15:15:13;11.60;74.00
51801;DHT22;37855;53.204;6.568;2022-11-15T15:17:39;11.50;73.80
51801;DHT22;37855;53.204;6.568;2022-11-15T15:20:05;11.50;73.60
51801;DHT22;37855;53.204;6.568;2022-11-15T15:22:31;11.50;73.80
51801;DHT22;37855;53.204;6.568;2022-11-15T15:24:57;11.40;73.80
51801;DHT22;37855;53.204;6.568;2022-11-15T15:27:22;11.40;74.00
51801;DHT22;37855;53.204;6.568;2022-11-15T15:29:48;11.30;74.20
51801;DHT22;37855;53.204;6.568;2022-11-15T15:32:17;11.30;74.20
51801;DHT22;37855;53.204;6.568;2022-11-15T15:34:42;11.20;74.30
51801;DHT22;37855;53.204;6.568;2022-11-15T15:37:23;11.20;74.50
51801;DHT22;37855;53.204;6.568;2022-11-15T15:39:54;11.20;74.80
51801;DHT22;37855;53.204;6.568;2022-11-15T15:42:29;11.20;75.00
51801;DHT22;37855;53.204;6.568;2022-11-15T15:44:59;11.20;75.30
51801;DHT22;37855;53.204;6.568;2022-11-15T15:47:27;11.20;75.30
51801;DHT22;37855;53.204;6.568;2022-11-15T15:50:01;11.10;75.30
51801;DHT22;37855;53.204;6.568;2022-11-15T15:52:27;11.10;75.40
51801;DHT22;37855;53.204;6.568;2022-11-15T15:54:53;11.00;75.60
51801;DHT22;37855;53.204;6.568;2022-11-15T15:57:18;11.00;75.60
51801;DHT22;37855;53.204;6.568;2022-11-15T15:59:44;11.00;75.60
51801;DHT22;37855;53.204;6.568;2022-11-15T16:02:13;11.00;75.70
51801;DHT22;37855;53.204;6.568;2022-11-15T16:04:39;10.90;75.70
51801;DHT22;37855;53.204;6.568;2022-11-15T16:07:05;10.90;75.70
51801;DHT22;37855;53.204;6.568;2022-11-15T16:09:35;10.90;75.60
51801;DHT22;37855;53.204;6.568;2022-11-15T16:12:25;10.90;75.80
51801;DHT22;37855;53.204;6.568;2022-11-15T16:14:51;10.80;75.80
51801;DHT22;37855;53.204;6.568;2022-11-15T16:17:25;10.80;75.80
51801;DHT22;37855;53.204;6.568;2022-11-15T16:19:51;10.80;75.80
51801;DHT22;37855;53.204;6.568;2022-11-15T16:22:17;10.80;75.80
51801;DHT22;37855;53.204;6.568;2022-11-15T16:24:43;10.80;75.90
51801;DHT22;37855;53.204;6.568;2022-11-15T16:27:20;10.70;76.00
51801;DHT22;37855;53.204;6.568;2022-11-15T16:29:46;10.70;76.10
51801;DHT22;37855;53.204;6.568;2022-11-15T16:32:18;10.70;76.20
51801;DHT22;37855;53.204;6.568;2022-11-15T16:34:44;10.70;76.20
51801;DHT22;37855;53.204;6.568;2022-11-15T16:37:30;10.70;76.10
51801;DHT22;37855;53.204;6.568;2022-11-15T16:39:59;10.70;76.20
51801;DHT22;37855;53.204;6.568;2022-11-15T16:42:41;10.60;76.20
51801;DHT22;37855;53.204;6.568;2022-11-15T16:45:11;10.70;76.20
51801;DHT22;37855;53.204;6.568;2022-11-15T16:47:38;10.60;76.20
51801;DHT22;37855;53.204;6.568;2022-11-15T16:50:18;10.60;76.20
51801;DHT22;37855;53.204;6.568;2022-11-15T16:52:49;10.60;76.20
51801;DHT22;37855;53.204;6.568;2022-11-15T16:55:15;10.60;76.20
51801;DHT22;37855;53.204;6.568;2022-11-15T16:57:42;10.70;76.20
51801;DHT22;37855;53.204;6.568;2022-11-15T17:00:14;10.70;76.20
51801;DHT22;37855;53.204;6.568;2022-11-15T17:02:44;10.70;76.00
51801;DHT22;37855;53.204;6.568;2022-11-15T17:05:10;10.70;76.00
51801;DHT22;37855;53.204;6.568;2022-11-15T17:07:39;10.80;75.80
51801;DHT22;37855;53.204;6.568;2022-11-15T17:10:06;10.80;75.60
51801;DHT22;37855;53.204;6.568;2022-11-15T17:12:35;10.80;75.40
51801;DHT22;37855;53.204;6.568;2022-11-15T17:15:01;10.80;75.10
51801;DHT22;37855;53.204;6.568;2022-11-15T17:17:29;10.90;74.90
51801;DHT22;37855;53.204;6.568;2022-11-15T17:19:55;10.90;74.70
51801;DHT22;37855;53.204;6.568;2022-11-15T17:22:27;10.90;74.70
51801;DHT22;37855;53.204;6.568;2022-11-15T17:24:56;10.90;74.40
51801;DHT22;37855;53.204;6.568;2022-11-15T17:27:21;10.90;74.30
51801;DHT22;37855;53.204;6.568;2022-11-15T17:29:48;11.00;74.20
51801;DHT22;37855;53.204;6.568;2022-11-15T17:32:19;10.90;74.00
51801;DHT22;37855;53.204;6.568;2022-11-15T17:34:48;10.90;73.90
51801;DHT22;37855;53.204;6.568;2022-11-15T17:37:20;10.90;73.60
51801;DHT22;37855;53.204;6.568;2022-11-15T17:40:06;10.90;73.40
51801;DHT22;37855;53.204;6.568;2022-11-15T17:42:35;10.90;73.30
51801;DHT22;37855;53.204;6.568;2022-11-15T17:45:01;10.90;73.40
51801;DHT22;37855;53.204;6.568;2022-11-15T17:47:36;10.90;73.30
51801;DHT22;37855;53.204;6.568;2022-11-15T17:50:05;10.90;73.20